createdAt,value
2018-12-15T00:02:25.671Z,98412.15
2018-12-15T00:04:54.971Z,98413.42
2018-12-15T00:07:24.279Z,98410.64
2018-12-15T00:09:53.783Z,98418.80
2018-12-15T00:12:23.155Z,98417.63
2018-12-15T00:14:52.552Z,98413.40
2018-12-15T00:17:21.934Z,98418.14
2018-12-15T00:19:51.216Z,98424.69
2018-12-15T00:22:20.523Z,98418.22
2018-12-15T00:24:49.824Z,98424.52
2018-12-15T00:27:19.167Z,98425.21
2018-12-15T00:29:48.555Z,98424.45
2018-12-15T00:32:17.862Z,98433.84
2018-12-15T00:34:47.201Z,98426.28
2018-12-15T00:37:16.470Z,98433.98
2018-12-15T00:39:45.784Z,98434.31
2018-12-15T00:42:15.167Z,98432.48
2018-12-15T00:44:44.466Z,98432.33
2018-12-15T00:47:14.108Z,98433.84
2018-12-15T00:49:43.476Z,98429.38
2018-12-15T00:52:12.783Z,98432.05
2018-12-15T00:54:42.109Z,98432.56
2018-12-15T00:57:11.483Z,98443.00
2018-12-15T00:59:40.794Z,98445.19
2018-12-15T01:02:10.081Z,98447.60
2018-12-15T01:04:39.596Z,98449.05
2018-12-15T01:07:08.973Z,98454.64
2018-12-15T01:09:38.414Z,98446.99
2018-12-15T01:12:07.702Z,98450.89
2018-12-15T01:14:37.137Z,98455.78
2018-12-15T01:17:06.534Z,98456.56
2018-12-15T01:19:35.833Z,98458.36
2018-12-15T01:22:05.097Z,98462.25
2018-12-15T01:24:34.419Z,98461.28
2018-12-15T01:27:04.010Z,98463.92
2018-12-15T01:29:33.439Z,98462.61
2018-12-15T01:32:02.703Z,98467.66
2018-12-15T01:34:32.000Z,98460.33
2018-12-15T01:37:01.298Z,98468.44
2018-12-15T01:39:30.600Z,98468.92
2018-12-15T01:41:59.900Z,98464.78
2018-12-15T01:44:29.252Z,98471.16
2018-12-15T01:46:58.544Z,98470.67
2018-12-15T01:49:27.954Z,98474.11
2018-12-15T01:51:57.350Z,98471.05
2018-12-15T01:54:27.043Z,98470.61
2018-12-15T01:56:56.348Z,98471.78
2018-12-15T01:59:25.636Z,98480.05
2018-12-15T02:01:55.188Z,98480.86
2018-12-15T02:04:24.480Z,98474.61
2018-12-15T02:06:53.892Z,98483.17
2018-12-15T02:09:23.408Z,98485.56
2018-12-15T02:11:52.748Z,98486.41
2018-12-15T02:14:22.043Z,98492.32
2018-12-15T02:16:51.340Z,98477.95
2018-12-15T02:19:20.739Z,98486.59
2018-12-15T02:21:50.053Z,98484.94
2018-12-15T02:24:19.348Z,98481.23
2018-12-15T02:26:48.680Z,98487.39
2018-12-15T02:29:17.967Z,98485.26
2018-12-15T02:31:47.446Z,98486.23
2018-12-15T02:34:16.743Z,98491.61
2018-12-15T02:36:46.092Z,98488.72
2018-12-15T02:39:15.691Z,98491.41
2018-12-15T02:41:47.352Z,98494.18
2018-12-15T02:44:16.300Z,98494.52
2018-12-15T02:46:45.570Z,98489.39
2018-12-15T02:49:14.866Z,98487.09
2018-12-15T02:51:44.172Z,98497.23
2018-12-15T02:54:13.548Z,98498.56
2018-12-15T02:56:42.856Z,98501.83
2018-12-15T02:59:12.254Z,98499.26
2018-12-15T03:01:41.590Z,98504.92
2018-12-15T03:04:10.910Z,98506.01
2018-12-15T03:06:40.164Z,98507.80
2018-12-15T03:09:10.385Z,98507.13
2018-12-15T03:11:39.797Z,98510.11
2018-12-15T03:14:09.213Z,98504.58
2018-12-15T03:16:40.539Z,98510.00
2018-12-15T03:19:12.825Z,98512.73
2018-12-15T03:21:42.132Z,98511.06
2018-12-15T03:24:11.500Z,98517.94
2018-12-15T03:26:40.801Z,98520.13
2018-12-15T03:29:10.073Z,98521.33
2018-12-15T03:31:39.491Z,98520.07
2018-12-15T03:34:08.848Z,98512.55
2018-12-15T03:36:38.146Z,98510.30
2018-12-15T03:39:07.548Z,98508.43
2018-12-15T03:41:37.090Z,98512.18
2018-12-15T03:44:06.338Z,98511.53
2018-12-15T03:46:35.709Z,98518.71
2018-12-15T03:49:05.043Z,98521.06
2018-12-15T03:51:34.316Z,98514.19
2018-12-15T03:54:03.717Z,98511.67
2018-12-15T03:56:33.112Z,98515.98
2018-12-15T03:59:02.471Z,98513.17
2018-12-15T04:01:31.886Z,98518.59
2018-12-15T04:04:01.411Z,98523.28
2018-12-15T04:06:30.954Z,98527.39
2018-12-15T04:09:00.229Z,98525.80
2018-12-15T04:11:29.520Z,98534.95
2018-12-15T04:13:58.776Z,98529.50
2018-12-15T04:16:28.153Z,98530.98
2018-12-15T04:18:57.436Z,98535.16
2018-12-15T04:21:26.802Z,98532.54
2018-12-15T04:23:56.089Z,98542.02
2018-12-15T04:26:25.523Z,98536.11
2018-12-15T04:28:55.947Z,98536.37
2018-12-15T04:31:25.269Z,98533.67
2018-12-15T04:33:54.725Z,98534.90
2018-12-15T04:36:24.077Z,98529.72
2018-12-15T04:38:53.499Z,98524.75
2018-12-15T04:41:22.770Z,98522.02
2018-12-15T04:43:52.352Z,98527.23
2018-12-15T04:46:21.668Z,98526.48
2018-12-15T04:48:50.958Z,98522.70
2018-12-15T04:51:20.251Z,98522.63
2018-12-15T04:53:49.522Z,98516.67
2018-12-15T04:56:18.814Z,98520.33
2018-12-15T04:58:48.174Z,98517.41
2018-12-15T05:01:17.467Z,98521.30
2018-12-15T05:03:46.751Z,98515.28
2018-12-15T05:06:16.085Z,98512.80
2018-12-15T05:08:45.345Z,98514.87
2018-12-15T05:11:14.680Z,98514.80
2018-12-15T05:13:43.946Z,98518.17
2018-12-15T05:16:13.281Z,98519.00
2018-12-15T05:18:42.633Z,98514.42
2018-12-15T05:21:11.891Z,98514.42
2018-12-15T05:23:41.171Z,98512.41
2018-12-15T05:26:10.474Z,98508.89
2018-12-15T05:28:39.730Z,98514.62
2018-12-15T05:31:09.007Z,98507.61
2018-12-15T05:33:38.300Z,98510.34
2018-12-15T05:36:07.597Z,98510.41
2018-12-15T05:38:36.869Z,98506.76
2018-12-15T05:41:06.257Z,98507.05
2018-12-15T05:43:35.608Z,98511.19
2018-12-15T05:46:04.931Z,98506.66
2018-12-15T05:48:34.420Z,98509.85
2018-12-15T05:51:03.917Z,98506.93
2018-12-15T05:53:33.324Z,98506.27
2018-12-15T05:56:02.953Z,98504.05
2018-12-15T05:58:32.315Z,98507.44
2018-12-15T06:01:01.665Z,98508.94
2018-12-15T06:03:30.916Z,98509.11
2018-12-15T06:06:00.241Z,98516.30
2018-12-15T06:08:29.521Z,98515.18
2018-12-15T06:10:58.951Z,98515.56
2018-12-15T06:13:28.221Z,98513.80
2018-12-15T06:15:57.626Z,98513.29
2018-12-15T06:18:31.560Z,98519.84
2018-12-15T06:20:58.292Z,98519.02
2018-12-15T06:23:27.624Z,98522.34
2018-12-15T06:25:56.989Z,98522.70
2018-12-15T06:28:26.298Z,98520.53
2018-12-15T06:30:55.640Z,98521.27
2018-12-15T06:33:24.993Z,98523.04
2018-12-15T06:35:54.293Z,98521.91
2018-12-15T06:38:23.560Z,98523.98
2018-12-15T06:40:52.848Z,98528.56
2018-12-15T06:43:22.429Z,98528.09
2018-12-15T06:45:51.860Z,98526.74
2018-12-15T06:48:21.216Z,98526.34
2018-12-15T06:50:50.541Z,98522.34
2018-12-15T06:53:19.920Z,98524.95
2018-12-15T06:55:49.306Z,98527.80
2018-12-15T06:58:18.536Z,98526.62
2018-12-15T07:00:48.017Z,98525.83
2018-12-15T07:03:17.531Z,98529.57
2018-12-15T07:05:46.906Z,98527.44
2018-12-15T07:08:16.246Z,98527.39
2018-12-15T07:10:45.599Z,98532.98
2018-12-15T07:13:16.976Z,98529.87
2018-12-15T07:15:46.272Z,98536.08
2018-12-15T07:18:15.719Z,98536.25
2018-12-15T07:20:45.108Z,98539.03
2018-12-15T07:23:14.472Z,98538.28
2018-12-15T07:25:44.050Z,98534.84
2018-12-15T07:28:13.311Z,98536.77
2018-12-15T07:30:42.891Z,98534.58
2018-12-15T07:33:12.498Z,98530.91
2018-12-15T07:35:41.916Z,98534.12
2018-12-15T07:38:11.224Z,98531.20
2018-12-15T07:40:40.533Z,98532.20
2018-12-15T07:43:09.977Z,98541.23
2018-12-15T07:45:39.233Z,98536.03
2018-12-15T07:48:08.605Z,98542.38
2018-12-15T07:50:37.885Z,98543.08
2018-12-15T07:53:07.281Z,98540.66
2018-12-15T07:55:36.581Z,98542.56
2018-12-15T07:58:06.047Z,98547.19
2018-12-15T08:00:35.302Z,98547.86
2018-12-15T08:03:04.688Z,98547.67
2018-12-15T08:05:33.999Z,98553.55
2018-12-15T08:08:03.324Z,98546.48
2018-12-15T08:13:28.671Z,98546.62
2018-12-15T08:15:58.976Z,98551.32
2018-12-15T08:18:28.520Z,98560.34
2018-12-15T08:20:58.056Z,98555.58
2018-12-15T08:23:28.233Z,98557.08
2018-12-15T08:25:57.619Z,98553.59
2018-12-15T08:28:27.064Z,98556.20
2018-12-15T08:30:56.420Z,98559.06
2018-12-15T08:33:25.938Z,98557.98
2018-12-15T08:35:55.324Z,98559.41
2018-12-15T08:38:24.639Z,98561.90
2018-12-15T08:40:53.970Z,98564.30
2018-12-15T08:43:23.340Z,98565.10
2018-12-15T08:45:53.030Z,98568.75
2018-12-15T08:48:22.408Z,98566.58
2018-12-15T08:50:51.925Z,98564.41
2018-12-15T08:53:21.302Z,98544.63
2018-12-15T08:55:50.620Z,98560.91
2018-12-15T08:58:19.985Z,98560.09
2018-12-15T09:00:49.261Z,98558.63
2018-12-15T09:03:18.605Z,98564.73
2018-12-15T09:05:47.954Z,98565.22
2018-12-15T09:08:17.267Z,98561.25
2018-12-15T09:10:46.641Z,98563.48
2018-12-15T09:13:16.029Z,98559.94
2018-12-15T09:15:45.352Z,98560.79
2018-12-15T09:18:15.670Z,98566.02
2018-12-15T09:20:45.984Z,98572.28
2018-12-15T09:23:15.385Z,98571.29
2018-12-15T09:25:44.800Z,98568.97
2018-12-15T09:28:14.155Z,98572.78
2018-12-15T09:30:43.429Z,98571.91
2018-12-15T09:33:12.785Z,98567.61
2018-12-15T09:35:42.098Z,98571.77
2018-12-15T09:38:11.581Z,98568.22
2018-12-15T09:40:41.080Z,98567.09
2018-12-15T09:43:10.425Z,98561.61
2018-12-15T09:45:39.704Z,98554.13
2018-12-15T09:48:09.156Z,98560.63
2018-12-15T09:50:38.634Z,98555.64
2018-12-15T09:53:08.030Z,98555.64
2018-12-15T09:55:37.343Z,98549.78
2018-12-15T09:58:06.732Z,98546.33
2018-12-15T10:00:36.255Z,98552.41
2018-12-15T10:03:05.655Z,98548.85
2018-12-15T10:05:35.031Z,98549.35
2018-12-15T10:08:04.451Z,98545.42
2018-12-15T10:10:33.848Z,98545.87
2018-12-15T10:13:03.162Z,98541.95
2018-12-15T10:15:32.546Z,98545.09
2018-12-15T10:18:01.965Z,98537.77
2018-12-15T10:20:31.304Z,98538.63
2018-12-15T10:23:00.733Z,98538.77
2018-12-15T10:25:30.114Z,98537.06
2018-12-15T10:27:59.450Z,98537.09
2018-12-15T10:30:34.180Z,98533.41
2018-12-15T10:33:04.308Z,98539.55
2018-12-15T10:35:33.602Z,98527.09
2018-12-15T10:38:02.913Z,98525.95
2018-12-15T10:40:32.328Z,98521.59
2018-12-15T10:43:01.762Z,98518.92
2018-12-15T10:45:31.091Z,98524.70
2018-12-15T10:48:00.421Z,98524.42
2018-12-15T10:50:29.805Z,98526.03
2018-12-15T10:52:59.127Z,98526.22
2018-12-15T10:55:28.455Z,98519.64
2018-12-15T10:57:57.807Z,98525.02
2018-12-15T11:01:34.959Z,98517.20
2018-12-15T11:04:04.489Z,98515.59
2018-12-15T11:06:33.863Z,98521.42
2018-12-15T11:09:03.495Z,98525.02
2018-12-15T11:11:32.960Z,98518.17
2018-12-15T11:14:02.490Z,98510.89
2018-12-15T11:16:31.970Z,98507.67
2018-12-15T11:19:01.390Z,98508.83
2018-12-15T11:21:30.778Z,98499.86
2018-12-15T11:24:00.110Z,98497.42
2018-12-15T11:26:29.461Z,98499.22
2018-12-15T11:28:58.832Z,98493.03
2018-12-15T11:31:28.246Z,98495.28
2018-12-15T11:33:57.587Z,98489.39
2018-12-15T11:36:27.196Z,98488.58
2018-12-15T11:38:56.536Z,98496.41
2018-12-15T11:41:25.846Z,98494.92
2018-12-15T11:43:56.160Z,98490.72
2018-12-15T11:46:25.452Z,98481.56
2018-12-15T11:48:55.003Z,98485.28
2018-12-15T11:51:24.299Z,98487.39
2018-12-15T11:53:53.567Z,98466.80
2018-12-15T11:56:22.943Z,98464.55
2018-12-15T11:58:52.267Z,98462.88
2018-12-15T12:01:21.542Z,98455.39
2018-12-15T12:03:50.986Z,98456.34
2018-12-15T12:06:20.490Z,98455.55
2018-12-15T12:08:49.787Z,98452.12
2018-12-15T12:11:19.053Z,98451.95
2018-12-15T12:13:48.453Z,98446.98
2018-12-15T12:16:17.759Z,98443.25
2018-12-15T12:18:47.056Z,98436.39
2018-12-15T12:21:16.357Z,98437.05
2018-12-15T12:23:45.662Z,98435.77
2018-12-15T12:26:14.986Z,98423.45
2018-12-15T12:28:44.255Z,98430.69
2018-12-15T12:31:13.673Z,98441.48
2018-12-15T12:33:43.049Z,98443.27
2018-12-15T12:36:12.432Z,98443.61
2018-12-15T12:38:42.093Z,98454.08
2018-12-15T12:41:11.395Z,98440.34
2018-12-15T12:43:40.727Z,98443.12
2018-12-15T12:46:10.086Z,98419.06
2018-12-15T12:48:39.604Z,98433.63
2018-12-15T12:51:08.928Z,98437.09
2018-12-15T12:53:38.282Z,98436.55
2018-12-15T12:56:07.638Z,98435.55
2018-12-15T12:58:36.961Z,98436.27
2018-12-15T13:01:06.266Z,98466.17
2018-12-15T13:03:35.714Z,98431.86
2018-12-15T13:06:05.190Z,98438.07
2018-12-15T13:08:34.564Z,98428.42
2018-12-15T13:11:04.048Z,98431.05
2018-12-15T13:13:33.899Z,98421.88
2018-12-15T13:16:03.440Z,98419.59
2018-12-15T13:18:32.904Z,98422.03
2018-12-15T13:21:02.310Z,98451.48
2018-12-15T13:23:31.637Z,98412.53
2018-12-15T13:26:01.048Z,98413.36
2018-12-15T13:28:30.422Z,98416.49
2018-12-15T13:30:59.947Z,98415.66
2018-12-15T13:33:36.222Z,98408.45
2018-12-15T13:36:16.097Z,98407.95
2018-12-15T13:38:45.666Z,98405.98
2018-12-15T13:41:15.206Z,98406.31
2018-12-15T13:43:44.561Z,98412.87
2018-12-15T13:46:14.086Z,98418.77
2018-12-15T13:48:43.384Z,98420.38
2018-12-15T13:51:12.902Z,98413.05
2018-12-15T13:53:42.456Z,98416.28
2018-12-15T13:56:11.896Z,98418.57
2018-12-15T13:58:41.333Z,98418.77
2018-12-15T14:01:10.731Z,98416.63
2018-12-15T14:03:40.203Z,98415.47
2018-12-15T14:06:09.613Z,98418.28
2018-12-15T14:08:38.945Z,98420.71
2018-12-15T14:11:08.439Z,98417.25
2018-12-15T14:13:37.960Z,98420.23
2018-12-15T14:16:07.657Z,98422.19
2018-12-15T14:18:37.004Z,98421.69
2018-12-15T14:21:12.639Z,98416.30
2018-12-15T14:23:41.945Z,98424.14
2018-12-15T14:26:11.324Z,98416.14
2018-12-15T14:28:40.612Z,98413.04
2018-12-15T14:31:09.920Z,98417.94
2018-12-15T14:33:39.201Z,98426.92
2018-12-15T14:36:08.496Z,98417.11
2018-12-15T14:38:37.748Z,98415.64
2018-12-15T14:41:11.751Z,98422.83
2018-12-15T14:43:41.036Z,98418.08
2018-12-15T14:46:11.291Z,98414.48
2018-12-15T14:48:40.568Z,98415.46
2018-12-15T14:51:09.987Z,98420.37
2018-12-15T14:53:39.229Z,98414.82
2018-12-15T14:56:08.573Z,98410.69
2018-12-15T14:58:37.822Z,98410.06
2018-12-15T15:01:07.065Z,98407.61
2018-12-15T15:03:36.304Z,98402.38
2018-12-15T15:06:05.654Z,98402.52
2018-12-15T15:08:34.909Z,98395.83
2018-12-15T15:11:04.324Z,98398.93
2018-12-15T15:13:34.625Z,98400.26
2018-12-15T15:16:04.503Z,98396.32
2018-12-15T15:18:33.836Z,98397.46
2018-12-15T15:21:03.181Z,98393.87
2018-12-15T15:23:32.403Z,98386.18
2018-12-15T15:26:01.693Z,98385.21
2018-12-15T15:28:31.061Z,98382.40
2018-12-15T15:31:00.389Z,98391.75
2018-12-15T15:33:29.639Z,98382.12
2018-12-15T15:35:59.022Z,98379.49
2018-12-15T15:38:28.388Z,98382.89
2018-12-15T15:40:57.771Z,98378.16
2018-12-15T15:43:27.179Z,98368.34
2018-12-15T15:45:56.688Z,98370.00
2018-12-15T15:48:26.052Z,98365.75
2018-12-15T15:50:55.368Z,98358.72
2018-12-15T15:53:24.668Z,98359.88
2018-12-15T15:55:54.013Z,98362.80
2018-12-15T15:58:23.309Z,98350.38
2018-12-15T16:00:52.774Z,98361.00
2018-12-15T16:03:22.028Z,98360.34
2018-12-15T16:05:51.423Z,98351.01
2018-12-15T16:08:20.697Z,98353.00
2018-12-15T16:10:49.745Z,98360.84
2018-12-15T16:13:19.036Z,98360.34
2018-12-15T16:15:48.340Z,98352.99
2018-12-15T16:18:17.613Z,98352.16
2018-12-15T16:20:47.014Z,98342.19
2018-12-15T16:23:16.271Z,98335.66
2018-12-15T16:25:45.751Z,98332.90
2018-12-15T16:28:15.025Z,98334.36
2018-12-15T16:30:44.334Z,98328.63
2018-12-15T16:33:13.576Z,98328.60
2018-12-15T16:35:42.926Z,98318.31
2018-12-15T16:38:12.189Z,98316.03
2018-12-15T16:40:41.559Z,98315.88
2018-12-15T16:43:10.954Z,98324.84
2018-12-15T16:45:40.220Z,98327.30
2018-12-15T16:48:09.672Z,98328.62
2018-12-15T16:50:38.954Z,98329.93
2018-12-15T16:53:08.175Z,98331.22
2018-12-15T16:55:37.437Z,98320.28
2018-12-15T16:58:06.855Z,98322.23
2018-12-15T17:00:36.304Z,98322.22
2018-12-15T17:03:05.811Z,98320.09
2018-12-15T17:05:35.057Z,98313.56
2018-12-15T17:08:04.559Z,98318.98
2018-12-15T17:10:33.883Z,98327.13
2018-12-15T17:13:03.239Z,98319.59
2018-12-15T17:15:32.473Z,98307.20
2018-12-15T17:18:01.760Z,98296.56
2018-12-15T17:20:30.798Z,98298.88
2018-12-15T17:23:00.140Z,98295.74
2018-12-15T17:25:29.419Z,98295.58
2018-12-15T17:27:58.814Z,98287.90
2018-12-15T17:30:28.062Z,98283.81
2018-12-15T17:32:57.385Z,98285.28
2018-12-15T17:35:26.643Z,98283.97
2018-12-15T17:37:56.184Z,98283.19
2018-12-15T17:40:25.459Z,98285.80
2018-12-15T17:42:54.742Z,98289.19
2018-12-15T17:45:24.066Z,98283.98
2018-12-15T17:47:53.459Z,98288.70
2018-12-15T17:50:22.820Z,98283.80
2018-12-15T17:52:52.073Z,98276.13
2018-12-15T17:55:21.447Z,98273.51
2018-12-15T17:57:50.738Z,98270.25
2018-12-15T18:00:20.104Z,98267.30
2018-12-15T18:02:49.404Z,98270.59
2018-12-15T18:05:18.744Z,98263.87
2018-12-15T18:07:48.080Z,98258.35
2018-12-15T18:10:17.425Z,98253.59
2018-12-15T18:12:46.812Z,98252.30
2018-12-15T18:15:16.119Z,98245.91
2018-12-15T18:17:45.453Z,98243.93
2018-12-15T18:20:14.874Z,98233.81
2018-12-15T18:27:31.049Z,98228.09
2018-12-15T18:30:00.400Z,98228.91
2018-12-15T18:32:29.737Z,98220.58
2018-12-15T18:34:59.049Z,98212.58
2018-12-15T18:37:28.456Z,98205.26
2018-12-15T18:39:57.801Z,98202.63
2018-12-15T18:42:27.116Z,98200.02
2018-12-15T18:44:56.389Z,98195.59
2018-12-15T18:47:25.812Z,98194.63
2018-12-15T18:49:55.184Z,98185.66
2018-12-15T18:52:24.516Z,98182.03
2018-12-15T18:54:53.891Z,98178.47
2018-12-15T18:57:26.180Z,98181.22
2018-12-15T18:59:55.640Z,98186.96
2018-12-15T19:02:25.067Z,98188.27
2018-12-15T19:04:54.365Z,98181.23
2018-12-15T19:07:23.692Z,98177.66
2018-12-15T19:09:53.008Z,98176.00
2018-12-15T19:12:22.327Z,98175.37
2018-12-15T19:14:51.643Z,98160.50
2018-12-15T19:17:20.964Z,98162.14
2018-12-15T19:19:51.361Z,98158.71
2018-12-15T19:22:20.796Z,98158.53
2018-12-15T19:24:50.543Z,98146.47
2018-12-15T19:27:19.924Z,98151.99
2018-12-15T19:29:49.252Z,98147.09
2018-12-15T19:32:18.563Z,98141.53
2018-12-15T19:34:52.448Z,98136.80
2018-12-15T19:37:19.158Z,98131.08
2018-12-15T19:39:48.464Z,98118.99
2018-12-15T19:42:17.805Z,98123.23
2018-12-15T19:44:47.118Z,98119.44
2018-12-15T19:47:16.520Z,98120.44
2018-12-15T19:49:46.041Z,98116.19
2018-12-15T19:52:15.375Z,98116.52
2018-12-15T19:54:44.665Z,98101.78
2018-12-15T19:57:14.052Z,98103.07
2018-12-15T19:59:43.363Z,98097.69
2018-12-15T20:02:12.918Z,98096.33
2018-12-15T20:04:42.292Z,98097.63
2018-12-15T20:07:12.296Z,98084.27
2018-12-15T20:09:41.627Z,98087.50
2018-12-15T20:12:11.135Z,98079.02
2018-12-15T20:14:40.606Z,98078.17
2018-12-15T20:17:10.019Z,98071.17
2018-12-15T20:19:39.303Z,98078.67
2018-12-15T20:22:08.764Z,98076.67
2018-12-15T20:24:38.059Z,98070.69
2018-12-15T20:27:07.395Z,98069.84
2018-12-15T20:29:36.705Z,98070.63
2018-12-15T20:32:06.110Z,98069.80
2018-12-15T20:34:35.418Z,98065.21
2018-12-15T20:37:04.803Z,98063.21
2018-12-15T20:39:34.172Z,98051.45
2018-12-15T20:42:03.469Z,98049.50
2018-12-15T20:44:32.933Z,98053.41
2018-12-15T20:47:02.260Z,98049.47
2018-12-15T20:49:31.580Z,98042.27
2018-12-15T20:52:00.882Z,98039.98
2018-12-15T20:54:31.499Z,98038.23
2018-12-15T20:57:01.469Z,98035.17
2018-12-15T20:59:31.234Z,98030.55
2018-12-15T21:02:01.151Z,98029.54
2018-12-15T21:04:30.907Z,98021.68
2018-12-15T21:07:01.463Z,98026.95
2018-12-15T21:09:30.823Z,98024.35
2018-12-15T21:12:00.153Z,98018.49
2018-12-15T21:14:29.413Z,98010.97
2018-12-15T21:16:58.849Z,98010.22
2018-12-15T21:19:28.176Z,98013.07
2018-12-15T21:21:57.597Z,98003.81
2018-12-15T21:24:26.955Z,98003.79
2018-12-15T21:26:56.238Z,97995.36
2018-12-15T21:29:25.572Z,97994.06
2018-12-15T21:31:56.823Z,97985.95
2018-12-15T21:34:26.446Z,97975.03
2018-12-15T21:36:55.895Z,97974.04
2018-12-15T21:39:25.227Z,97962.48
2018-12-15T21:41:54.708Z,97961.82
2018-12-15T21:44:24.131Z,97960.16
2018-12-15T21:46:55.560Z,97953.95
2018-12-15T21:49:24.831Z,97941.11
2018-12-15T21:51:56.394Z,97940.00
2018-12-15T21:54:25.850Z,97948.16
2018-12-15T21:56:55.348Z,97944.34
2018-12-15T21:59:24.760Z,97945.00
2018-12-15T22:01:54.066Z,97944.84
2018-12-15T22:04:23.499Z,97934.45
2018-12-15T22:06:52.865Z,97931.52
2018-12-15T22:09:22.209Z,97923.55
2018-12-15T22:11:51.571Z,97914.57
2018-12-15T22:14:21.941Z,97915.89
2018-12-15T22:16:51.263Z,97923.22
2018-12-15T22:19:21.717Z,97918.52
2018-12-15T22:21:51.000Z,97916.59
2018-12-15T22:24:20.369Z,97919.55
2018-12-15T22:26:49.730Z,97920.39
2018-12-15T22:29:19.280Z,97908.47
2018-12-15T22:31:48.652Z,97901.35
2018-12-15T22:34:18.051Z,97894.02
2018-12-15T22:36:47.332Z,97894.84
2018-12-15T22:39:16.712Z,97887.03
2018-12-15T22:41:46.007Z,97878.25
2018-12-15T22:44:15.301Z,97876.30
2018-12-15T22:46:44.676Z,97873.69
2018-12-15T22:49:14.006Z,97867.83
2018-12-15T22:51:43.353Z,97859.69
2018-12-15T22:54:12.644Z,97844.05
2018-12-15T22:56:41.940Z,97843.72
2018-12-15T22:59:11.322Z,97838.17
2018-12-15T23:01:46.823Z,97829.86
2018-12-15T23:04:16.605Z,97819.63
2018-12-15T23:06:46.880Z,97819.92
2018-12-15T23:09:16.186Z,97820.41
2018-12-15T23:11:46.557Z,97813.11
2018-12-15T23:14:15.856Z,97788.02
2018-12-15T23:16:45.229Z,97793.56
2018-12-15T23:19:14.586Z,97781.02
2018-12-15T23:21:43.843Z,97777.11
2018-12-15T23:24:13.139Z,97770.09
2018-12-15T23:26:42.388Z,97770.40
2018-12-15T23:29:11.671Z,97770.73
2018-12-15T23:31:40.975Z,97761.13
2018-12-15T23:34:10.475Z,97761.61
2018-12-15T23:36:39.957Z,97752.48
2018-12-15T23:39:09.498Z,97753.96
2018-12-15T23:41:38.749Z,97756.88
2018-12-15T23:44:08.155Z,97753.30
2018-12-15T23:46:37.428Z,97749.53
2018-12-15T23:49:06.764Z,97748.41
2018-12-15T23:51:36.167Z,97738.31
2018-12-15T23:54:05.655Z,97741.08
2018-12-15T23:56:34.973Z,97733.75
2018-12-15T23:59:04.391Z,97731.00
